createdAt,value
2023-01-29T00:00:17.725Z,0.20
2023-01-29T00:02:46.080Z,0.10
2023-01-29T00:05:28.915Z,0.10
2023-01-29T00:07:58.028Z,0.10
2023-01-29T00:10:27.125Z,0.00
2023-01-29T00:12:55.576Z,0.00
2023-01-29T00:15:23.587Z,0.10
2023-01-29T00:17:51.696Z,0.10
2023-01-29T00:20:21.477Z,0.10
2023-01-29T00:22:49.544Z,0.10
2023-01-29T00:25:17.788Z,0.10
2023-01-29T00:27:45.962Z,0.10
2023-01-29T00:30:19.345Z,0.20
2023-01-29T00:32:48.059Z,0.20
2023-01-29T00:35:16.222Z,0.20
2023-01-29T00:37:45.855Z,0.20
2023-01-29T00:40:15.102Z,0.20
2023-01-29T00:43:18.108Z,0.20
2023-01-29T00:45:46.221Z,0.20
2023-01-29T00:48:14.349Z,0.10
2023-01-29T00:50:42.425Z,0.20
2023-01-29T00:53:11.923Z,0.20
2023-01-29T00:55:40.054Z,0.20
2023-01-29T00:58:08.166Z,0.20
2023-01-29T01:00:36.422Z,0.20
2023-01-29T01:03:06.625Z,0.20
2023-01-29T01:05:36.816Z,0.20
2023-01-29T01:08:26.682Z,0.20
2023-01-29T01:11:02.904Z,0.20
2023-01-29T01:13:33.129Z,0.20
2023-01-29T01:16:01.928Z,0.10
2023-01-29T01:18:31.905Z,0.10
2023-01-29T01:21:00.113Z,0.10
2023-01-29T01:23:28.225Z,0.10
2023-01-29T01:25:56.437Z,0.10
2023-01-29T01:28:26.278Z,0.10
2023-01-29T01:30:54.503Z,0.10
2023-01-29T01:33:22.765Z,0.00
2023-01-29T01:35:50.957Z,0.00
2023-01-29T01:38:19.126Z,0.00
2023-01-29T01:40:48.143Z,0.00
2023-01-29T01:43:16.186Z,-0.10
2023-01-29T01:45:46.821Z,-0.10
2023-01-29T01:48:21.477Z,-0.10
2023-01-29T01:50:55.290Z,-0.20
2023-01-29T01:53:30.611Z,-0.20
2023-01-29T01:56:04.494Z,-0.20
2023-01-29T01:58:38.055Z,-0.20
2023-01-29T02:01:12.010Z,-0.20
2023-01-29T02:04:04.878Z,-0.20
2023-01-29T02:06:52.705Z,-0.20
2023-01-29T02:09:32.606Z,-0.20
2023-01-29T02:12:00.809Z,-0.20
2023-01-29T02:14:28.960Z,-0.20
2023-01-29T02:16:58.703Z,-0.20
2023-01-29T02:19:43.173Z,-0.30
2023-01-29T02:22:43.067Z,-0.30
2023-01-29T02:25:46.126Z,-0.40
2023-01-29T02:28:27.256Z,-0.40
2023-01-29T02:31:09.504Z,-0.50
2023-01-29T02:33:53.385Z,-0.50
2023-01-29T02:36:36.959Z,-0.60
2023-01-29T02:39:17.938Z,-0.70
2023-01-29T02:42:12.198Z,-0.80
2023-01-29T02:44:49.415Z,-0.80
2023-01-29T02:47:24.007Z,-0.80
2023-01-29T02:50:07.304Z,-0.70
2023-01-29T02:52:49.755Z,-0.60
2023-01-29T02:55:24.682Z,-0.60
2023-01-29T02:58:01.845Z,-0.60
2023-01-29T03:00:37.708Z,-0.60
2023-01-29T03:03:13.918Z,-0.50
2023-01-29T03:05:53.411Z,-0.60
2023-01-29T03:08:37.255Z,-0.70
2023-01-29T03:11:08.172Z,-0.80
2023-01-29T03:13:44.107Z,-0.90
2023-01-29T03:16:23.154Z,-1.00
2023-01-29T03:18:58.025Z,-0.90
2023-01-29T03:21:55.310Z,-0.90
2023-01-29T03:24:52.725Z,-0.90
2023-01-29T03:27:43.586Z,-0.90
2023-01-29T03:30:32.779Z,-0.90
2023-01-29T03:33:08.954Z,-0.90
2023-01-29T03:35:44.692Z,-1.00
2023-01-29T03:38:13.290Z,-1.10
2023-01-29T03:40:53.479Z,-1.20
2023-01-29T03:43:33.254Z,-1.30
2023-01-29T03:46:09.771Z,-1.40
2023-01-29T03:48:48.280Z,-1.40
2023-01-29T03:51:29.502Z,-1.30
2023-01-29T03:54:08.138Z,-1.20
2023-01-29T03:56:54.559Z,-1.10
2023-01-29T03:59:36.625Z,-1.00
2023-01-29T04:02:10.070Z,-1.00
2023-01-29T04:04:43.170Z,-1.10
2023-01-29T04:07:15.716Z,-1.20
2023-01-29T04:09:50.776Z,-1.20
2023-01-29T04:12:27.397Z,-1.20
2023-01-29T04:14:59.721Z,-1.30
2023-01-29T04:17:38.224Z,-1.30
2023-01-29T04:20:10.470Z,-1.40
2023-01-29T04:22:41.866Z,-1.30
2023-01-29T04:25:16.434Z,-1.30
2023-01-29T04:27:55.934Z,-1.30
2023-01-29T04:30:35.325Z,-1.20
2023-01-29T04:33:21.571Z,-1.30
2023-01-29T04:36:08.988Z,-1.30
2023-01-29T04:38:56.391Z,-1.30
2023-01-29T04:41:34.058Z,-1.30
2023-01-29T04:44:12.067Z,-1.30
2023-01-29T04:46:53.937Z,-1.30
2023-01-29T04:49:36.578Z,-1.40
2023-01-29T04:52:16.714Z,-1.30
2023-01-29T04:55:02.456Z,-1.40
2023-01-29T04:57:40.889Z,-1.40
2023-01-29T05:00:18.005Z,-1.40
2023-01-29T05:02:47.666Z,-1.30
2023-01-29T05:05:20.952Z,-1.30
2023-01-29T05:07:51.489Z,-1.30
2023-01-29T05:10:24.129Z,-1.30
2023-01-29T05:13:01.466Z,-1.30
2023-01-29T05:15:38.093Z,-1.30
2023-01-29T05:18:08.878Z,-1.30
2023-01-29T05:20:41.005Z,-1.40
2023-01-29T05:23:17.149Z,-1.50
2023-01-29T05:25:46.794Z,-1.50
2023-01-29T05:28:16.670Z,-1.50
2023-01-29T05:30:47.233Z,-1.40
2023-01-29T05:33:20.107Z,-1.30
2023-01-29T05:35:48.854Z,-1.30
2023-01-29T05:38:20.004Z,-1.40
2023-01-29T05:40:48.691Z,-1.40
2023-01-29T05:43:19.714Z,-1.50
2023-01-29T05:45:54.612Z,-1.60
2023-01-29T05:48:23.075Z,-1.70
2023-01-29T05:50:51.434Z,-1.80
2023-01-29T05:53:21.026Z,-2.00
2023-01-29T05:55:50.215Z,-2.10
2023-01-29T05:58:19.654Z,-2.10
2023-01-29T06:00:47.806Z,-2.30
2023-01-29T06:03:16.456Z,-2.40
2023-01-29T06:05:44.659Z,-2.40
2023-01-29T06:08:13.272Z,-2.30
2023-01-29T06:10:42.789Z,-2.30
2023-01-29T06:13:10.850Z,-2.40
2023-01-29T06:15:41.735Z,-2.40
2023-01-29T06:18:09.894Z,-2.60
2023-01-29T06:20:38.856Z,-2.80
2023-01-29T06:23:07.115Z,-2.70
2023-01-29T06:25:35.222Z,-2.70
2023-01-29T06:28:05.176Z,-2.60
2023-01-29T06:30:33.322Z,-2.50
2023-01-29T06:33:02.927Z,-2.60
2023-01-29T06:35:31.216Z,-2.80
2023-01-29T06:37:59.284Z,-3.10
2023-01-29T06:40:27.426Z,-3.20
2023-01-29T06:42:55.462Z,-3.40
2023-01-29T06:45:25.180Z,-3.30
2023-01-29T06:47:53.375Z,-3.40
2023-01-29T06:50:21.443Z,-3.40
2023-01-29T06:52:49.573Z,-3.40
2023-01-29T06:55:18.157Z,-3.40
2023-01-29T06:57:46.212Z,-3.40
2023-01-29T07:00:17.292Z,-3.60
2023-01-29T07:02:50.113Z,-3.70
2023-01-29T07:05:18.284Z,-3.80
2023-01-29T07:07:46.398Z,-3.90
2023-01-29T07:10:14.755Z,-4.10
2023-01-29T07:12:43.132Z,-4.20
2023-01-29T07:15:12.752Z,-4.20
2023-01-29T07:17:40.951Z,-4.00
2023-01-29T07:20:12.502Z,-4.00
2023-01-29T07:22:40.533Z,-4.00
2023-01-29T07:25:10.701Z,-4.10
2023-01-29T07:27:38.797Z,-4.00
2023-01-29T07:30:09.077Z,-4.10
2023-01-29T07:32:37.185Z,-4.20
2023-01-29T07:35:06.051Z,-4.30
2023-01-29T07:37:35.648Z,-4.40
2023-01-29T07:40:05.210Z,-4.20
2023-01-29T07:42:33.375Z,-4.20
2023-01-29T07:45:01.479Z,-4.20
2023-01-29T07:47:29.528Z,-4.20
2023-01-29T07:49:57.575Z,-4.10
2023-01-29T07:52:25.761Z,-4.10
2023-01-29T07:54:55.261Z,-3.90
2023-01-29T07:57:23.897Z,-3.80
2023-01-29T07:59:52.379Z,-3.80
2023-01-29T08:02:21.665Z,-3.80
2023-01-29T08:04:49.764Z,-3.70
2023-01-29T08:07:17.894Z,-3.70
2023-01-29T08:09:48.148Z,-3.50
2023-01-29T08:12:17.859Z,-3.50
2023-01-29T08:14:45.972Z,-3.30
2023-01-29T08:17:14.868Z,-3.20
2023-01-29T08:19:42.956Z,-3.10
2023-01-29T08:22:11.003Z,-3.10
2023-01-29T08:24:53.337Z,-2.90
2023-01-29T08:27:28.949Z,-2.80
2023-01-29T08:29:57.160Z,-2.60
2023-01-29T08:32:25.236Z,-2.40
2023-01-29T08:34:53.579Z,-2.20
2023-01-29T08:37:21.637Z,-2.10
2023-01-29T08:39:49.768Z,-1.80
2023-01-29T08:42:17.829Z,-1.60
2023-01-29T08:44:47.467Z,-1.30
2023-01-29T08:47:15.939Z,-1.00
2023-01-29T08:49:43.941Z,-0.60
2023-01-29T08:52:12.074Z,0.30
2023-01-29T08:54:40.136Z,1.70
2023-01-29T08:57:08.143Z,2.60
2023-01-29T08:59:36.345Z,3.10
2023-01-29T09:02:05.754Z,3.40
2023-01-29T09:04:33.925Z,3.40
2023-01-29T09:07:01.995Z,3.20
2023-01-29T09:09:30.018Z,2.90
2023-01-29T09:11:58.078Z,2.70
2023-01-29T09:14:27.639Z,2.50
2023-01-29T09:16:55.690Z,2.30
2023-01-29T09:19:25.272Z,2.20
2023-01-29T09:21:53.491Z,1.90
2023-01-29T09:24:21.638Z,1.70
2023-01-29T09:26:49.758Z,1.50
2023-01-29T09:29:17.798Z,1.40
2023-01-29T09:31:46.039Z,1.20
2023-01-29T09:34:14.540Z,1.00
2023-01-29T09:36:44.320Z,0.90
2023-01-29T09:39:12.361Z,0.80
2023-01-29T09:41:54.327Z,0.60
2023-01-29T09:44:40.868Z,0.60
2023-01-29T09:47:16.832Z,0.50
2023-01-29T09:49:51.231Z,0.50
2023-01-29T09:52:26.802Z,0.60
2023-01-29T09:55:05.222Z,0.80
2023-01-29T09:57:42.568Z,1.10
2023-01-29T10:00:18.805Z,1.50
2023-01-29T10:03:12.060Z,1.90
2023-01-29T10:06:23.311Z,2.00
2023-01-29T10:09:31.322Z,2.20
2023-01-29T10:12:15.396Z,2.00
2023-01-29T10:14:59.508Z,2.00
2023-01-29T10:17:54.450Z,2.00
2023-01-29T10:20:55.976Z,1.90
2023-01-29T10:23:33.344Z,2.10
2023-01-29T10:26:03.972Z,2.20
2023-01-29T10:28:42.725Z,2.40
2023-01-29T10:31:18.930Z,2.60
2023-01-29T10:34:02.540Z,2.70
2023-01-29T10:36:39.668Z,2.80
2023-01-29T10:39:17.388Z,2.70
2023-01-29T10:42:19.713Z,2.60
2023-01-29T10:45:07.475Z,2.30
2023-01-29T10:48:13.779Z,2.30
2023-01-29T10:50:52.846Z,2.40
2023-01-29T10:53:54.922Z,2.80
2023-01-29T10:56:46.006Z,2.80
2023-01-29T10:59:42.546Z,2.80
2023-01-29T11:02:19.523Z,2.70
2023-01-29T11:04:47.939Z,2.40
2023-01-29T11:07:22.852Z,2.40
2023-01-29T11:09:58.761Z,2.60
2023-01-29T11:12:33.477Z,2.80
2023-01-29T11:15:08.535Z,2.80
2023-01-29T11:17:36.614Z,2.70
2023-01-29T11:20:27.808Z,2.70
2023-01-29T11:22:56.697Z,2.70
2023-01-29T11:25:24.845Z,2.80
2023-01-29T11:27:57.040Z,3.00
2023-01-29T11:30:31.589Z,3.20
2023-01-29T11:33:10.102Z,3.50
2023-01-29T11:35:38.776Z,3.70
2023-01-29T11:38:22.727Z,3.50
2023-01-29T11:40:51.438Z,3.10
2023-01-29T11:43:30.966Z,2.90
2023-01-29T11:46:05.180Z,2.90
2023-01-29T11:48:43.072Z,2.90
2023-01-29T11:51:22.184Z,2.40
2023-01-29T11:53:56.778Z,2.30
2023-01-29T11:56:31.098Z,2.40
2023-01-29T11:59:02.272Z,2.50
2023-01-29T12:01:38.123Z,2.50
2023-01-29T12:04:21.478Z,2.50
2023-01-29T12:06:53.802Z,2.40
2023-01-29T12:09:27.363Z,2.50
2023-01-29T12:11:55.844Z,2.60
2023-01-29T12:14:30.190Z,3.20
2023-01-29T12:17:05.136Z,3.50
2023-01-29T12:19:40.331Z,3.70
2023-01-29T12:22:18.896Z,3.60
2023-01-29T12:24:56.090Z,3.20
2023-01-29T12:27:29.689Z,2.90
2023-01-29T12:30:07.252Z,2.90
2023-01-29T12:32:49.733Z,2.80
2023-01-29T12:35:26.052Z,2.80
2023-01-29T12:38:03.045Z,2.80
2023-01-29T12:40:36.016Z,2.90
2023-01-29T12:43:14.909Z,3.00
2023-01-29T12:45:45.771Z,3.10
2023-01-29T12:48:24.504Z,3.30
2023-01-29T12:50:56.749Z,3.30
2023-01-29T12:53:32.735Z,3.20
2023-01-29T12:56:06.740Z,3.10
2023-01-29T12:58:43.189Z,3.20
2023-01-29T13:01:16.703Z,3.10
2023-01-29T13:03:56.814Z,3.10
2023-01-29T13:06:31.415Z,3.10
2023-01-29T13:09:04.442Z,3.10
2023-01-29T13:11:41.248Z,3.30
2023-01-29T13:14:21.990Z,3.60
2023-01-29T13:16:56.561Z,3.80
2023-01-29T13:19:33.614Z,3.90
2023-01-29T13:22:06.340Z,4.10
2023-01-29T13:24:41.165Z,4.20
2023-01-29T13:27:22.024Z,4.20
2023-01-29T13:29:50.673Z,4.20
2023-01-29T13:32:26.147Z,4.20
2023-01-29T13:34:59.232Z,4.10
2023-01-29T13:37:34.283Z,4.00
2023-01-29T13:40:06.670Z,4.00
2023-01-29T13:42:45.468Z,4.10
2023-01-29T13:45:23.861Z,3.80
2023-01-29T13:47:53.893Z,3.70
2023-01-29T13:50:35.603Z,3.70
2023-01-29T13:53:08.283Z,3.80
2023-01-29T13:55:39.366Z,3.90
2023-01-29T13:58:08.850Z,4.00
2023-01-29T14:00:59.118Z,3.80
2023-01-29T14:04:05.944Z,3.50
2023-01-29T14:06:47.214Z,3.20
2023-01-29T14:09:57.010Z,3.10
2023-01-29T14:12:44.947Z,2.80
2023-01-29T14:15:34.086Z,2.90
2023-01-29T14:18:21.072Z,3.30
2023-01-29T14:21:04.226Z,3.50
2023-01-29T14:23:46.668Z,3.40
2023-01-29T14:26:33.041Z,3.20
2023-01-29T14:29:07.825Z,2.90
2023-01-29T14:31:44.816Z,2.70
2023-01-29T14:34:31.292Z,2.50
2023-01-29T14:37:05.513Z,2.60
2023-01-29T14:39:43.833Z,2.70
2023-01-29T14:42:26.919Z,3.00
2023-01-29T14:45:01.582Z,3.30
2023-01-29T14:48:36.617Z,3.40
2023-01-29T14:51:12.145Z,3.30
2023-01-29T14:54:00.504Z,3.30
2023-01-29T14:56:37.141Z,3.30
2023-01-29T14:59:17.690Z,3.40
2023-01-29T15:01:53.455Z,3.40
2023-01-29T15:04:27.907Z,3.20
2023-01-29T15:07:02.221Z,3.00
2023-01-29T15:09:40.946Z,2.90
2023-01-29T15:12:26.970Z,2.80
2023-01-29T15:15:07.015Z,2.70
2023-01-29T15:17:44.210Z,2.70
2023-01-29T15:20:31.893Z,2.80
2023-01-29T15:23:00.560Z,2.90
2023-01-29T15:25:37.120Z,3.00
2023-01-29T15:28:11.246Z,2.90
2023-01-29T15:30:39.819Z,2.80
2023-01-29T15:33:12.313Z,2.80
2023-01-29T15:35:43.398Z,2.70
2023-01-29T15:38:19.644Z,2.60
2023-01-29T15:40:59.547Z,2.40
2023-01-29T15:43:31.746Z,2.10
2023-01-29T15:46:04.067Z,1.90
2023-01-29T15:48:36.476Z,1.80
2023-01-29T15:51:08.831Z,1.60
2023-01-29T15:53:43.726Z,1.50
2023-01-29T15:56:14.137Z,1.40
2023-01-29T15:58:44.331Z,1.30
2023-01-29T16:01:12.680Z,1.20
2023-01-29T16:03:41.335Z,1.10
2023-01-29T16:06:12.163Z,0.90
2023-01-29T16:08:42.437Z,0.70
2023-01-29T16:11:11.448Z,0.50
2023-01-29T16:13:44.684Z,0.40
2023-01-29T16:16:26.639Z,0.20
2023-01-29T16:19:01.136Z,0.10
2023-01-29T16:21:37.834Z,0.00
2023-01-29T16:24:11.815Z,0.00
2023-01-29T16:26:46.054Z,0.00
2023-01-29T16:29:19.878Z,-0.10
2023-01-29T16:31:52.097Z,-0.20
2023-01-29T16:34:26.838Z,-0.30
2023-01-29T16:36:57.102Z,-0.50
2023-01-29T16:39:29.953Z,-0.60
2023-01-29T16:42:28.742Z,-0.80
2023-01-29T16:45:02.456Z,-0.90
2023-01-29T16:47:37.490Z,-0.90
2023-01-29T16:50:36.102Z,-1.00
2023-01-29T16:53:13.883Z,-1.00
2023-01-29T16:55:46.862Z,-1.00
2023-01-29T16:58:19.223Z,-1.00
2023-01-29T17:00:53.269Z,-1.20
2023-01-29T17:03:22.395Z,-1.30
2023-01-29T17:05:51.610Z,-1.30
2023-01-29T17:08:26.540Z,-1.30
2023-01-29T17:10:55.067Z,-1.30
2023-01-29T17:13:30.349Z,-1.30
2023-01-29T17:16:04.583Z,-1.30
2023-01-29T17:18:33.091Z,-1.30
2023-01-29T17:21:01.097Z,-1.40
2023-01-29T17:23:29.341Z,-1.40
2023-01-29T17:25:57.357Z,-1.40
2023-01-29T17:28:26.176Z,-1.50
2023-01-29T17:31:05.811Z,-1.50
2023-01-29T17:33:40.421Z,-1.60
2023-01-29T17:36:13.463Z,-1.60
2023-01-29T17:38:42.568Z,-1.60
2023-01-29T17:41:19.268Z,-1.50
2023-01-29T17:43:47.326Z,-1.40
2023-01-29T17:46:17.671Z,-1.30
2023-01-29T17:48:49.200Z,-1.30
2023-01-29T17:51:19.280Z,-1.30
2023-01-29T17:53:47.786Z,-1.30
2023-01-29T17:56:27.662Z,-1.30
2023-01-29T17:58:55.802Z,-1.20
2023-01-29T18:01:24.010Z,-1.10
2023-01-29T18:03:53.653Z,-0.90
2023-01-29T18:06:29.032Z,-0.90
2023-01-29T18:08:59.001Z,-0.80
2023-01-29T18:11:27.132Z,-0.70
2023-01-29T18:13:55.666Z,-0.60
2023-01-29T18:16:25.910Z,-0.60
2023-01-29T18:18:55.452Z,-0.60
2023-01-29T18:21:23.735Z,-0.60
2023-01-29T18:23:51.779Z,-0.60
2023-01-29T18:26:19.818Z,-0.60
2023-01-29T18:28:48.052Z,-0.60
2023-01-29T18:31:16.161Z,-0.60
2023-01-29T18:33:44.197Z,-0.70
2023-01-29T18:36:13.818Z,-0.60
2023-01-29T18:38:41.905Z,-0.60
2023-01-29T18:41:12.083Z,-0.60
2023-01-29T18:43:42.970Z,-0.60
2023-01-29T18:46:11.448Z,-0.60
2023-01-29T18:48:41.762Z,-0.60
2023-01-29T18:51:11.176Z,-0.60
2023-01-29T18:53:40.581Z,-0.60
2023-01-29T18:56:09.389Z,-0.70
2023-01-29T18:58:38.155Z,-0.70
2023-01-29T19:01:11.872Z,-0.50
2023-01-29T19:03:41.581Z,-0.20
2023-01-29T19:06:12.491Z,0.10
2023-01-29T19:08:43.846Z,0.20
2023-01-29T19:11:12.583Z,0.20
2023-01-29T19:13:42.447Z,0.20
2023-01-29T19:16:12.621Z,0.20
2023-01-29T19:18:40.977Z,0.30
2023-01-29T19:21:10.949Z,0.40
2023-01-29T19:23:39.167Z,0.40
2023-01-29T19:26:09.218Z,0.50
2023-01-29T19:28:37.339Z,0.50
2023-01-29T19:31:05.949Z,0.50
2023-01-29T19:33:34.340Z,0.50
2023-01-29T19:36:03.369Z,0.50
2023-01-29T19:38:34.927Z,0.50
2023-01-29T19:41:02.978Z,0.50
2023-01-29T19:43:34.849Z,0.50
2023-01-29T19:46:03.746Z,0.50
2023-01-29T19:48:31.902Z,0.60
2023-01-29T19:51:04.444Z,0.50
2023-01-29T19:53:33.056Z,0.50
2023-01-29T19:56:03.511Z,0.60
2023-01-29T19:58:34.268Z,0.60
2023-01-29T20:01:05.514Z,0.60
2023-01-29T20:03:34.179Z,0.50
2023-01-29T20:06:08.812Z,0.60
2023-01-29T20:08:37.170Z,0.60
2023-01-29T20:11:06.475Z,0.60
2023-01-29T20:13:35.953Z,0.60
2023-01-29T20:16:05.395Z,0.60
2023-01-29T20:18:33.719Z,0.60
2023-01-29T20:21:09.347Z,0.70
2023-01-29T20:23:39.803Z,0.70
2023-01-29T20:26:10.195Z,0.70
2023-01-29T20:28:40.147Z,0.70
2023-01-29T20:31:10.160Z,0.70
2023-01-29T20:33:39.689Z,0.80
2023-01-29T20:36:11.623Z,0.80
2023-01-29T20:38:39.778Z,0.80
2023-01-29T20:41:11.923Z,0.80
2023-01-29T20:43:41.868Z,0.80
2023-01-29T20:46:10.749Z,0.80
2023-01-29T20:48:39.008Z,0.80
2023-01-29T20:51:10.286Z,0.80
2023-01-29T20:53:38.884Z,0.90
2023-01-29T20:56:08.429Z,0.90
2023-01-29T20:58:37.012Z,0.90
2023-01-29T21:01:11.127Z,0.90
2023-01-29T21:03:40.597Z,0.90
2023-01-29T21:06:10.021Z,0.90
2023-01-29T21:08:39.584Z,0.90
2023-01-29T21:11:10.434Z,0.90
2023-01-29T21:13:39.199Z,0.90
2023-01-29T21:16:11.297Z,0.90
2023-01-29T21:18:39.585Z,0.90
2023-01-29T21:21:07.613Z,0.90
2023-01-29T21:23:35.612Z,0.90
2023-01-29T21:26:05.572Z,1.00
2023-01-29T21:28:34.987Z,1.00
2023-01-29T21:31:10.437Z,1.00
2023-01-29T21:33:39.255Z,1.00
2023-01-29T21:36:10.048Z,0.90
2023-01-29T21:38:38.212Z,1.00
2023-01-29T21:41:09.991Z,0.90
2023-01-29T21:43:37.720Z,1.00
2023-01-29T21:46:11.837Z,1.00
2023-01-29T21:48:41.511Z,1.00
2023-01-29T21:51:09.916Z,0.90
2023-01-29T21:53:38.029Z,0.90
2023-01-29T21:56:07.574Z,0.90
2023-01-29T21:58:35.668Z,0.90
2023-01-29T22:01:18.560Z,0.90
2023-01-29T22:03:53.229Z,0.90
2023-01-29T22:06:21.376Z,0.90
2023-01-29T22:08:49.993Z,0.90
2023-01-29T22:11:18.427Z,0.90
2023-01-29T22:13:47.083Z,0.80
2023-01-29T22:16:15.118Z,0.80
2023-01-29T22:18:43.275Z,0.80
2023-01-29T22:21:12.722Z,0.80
2023-01-29T22:23:40.796Z,0.80
2023-01-29T22:26:09.907Z,0.80
2023-01-29T22:28:38.142Z,0.80
2023-01-29T22:31:07.242Z,0.90
2023-01-29T22:33:35.872Z,0.80
2023-01-29T22:36:04.855Z,0.80
2023-01-29T22:38:34.217Z,0.80
2023-01-29T22:41:04.611Z,0.80
2023-01-29T22:43:32.646Z,0.90
2023-01-29T22:46:00.748Z,0.90
2023-01-29T22:48:30.584Z,0.90
2023-01-29T22:51:11.255Z,0.90
2023-01-29T22:53:43.195Z,0.90
2023-01-29T22:56:12.539Z,0.90
2023-01-29T22:58:41.144Z,0.90
2023-01-29T23:01:09.903Z,0.90
2023-01-29T23:03:38.204Z,0.90
2023-01-29T23:06:06.307Z,0.90
2023-01-29T23:08:34.675Z,0.90
2023-01-29T23:11:15.039Z,0.90
2023-01-29T23:13:44.417Z,0.90
2023-01-29T23:16:12.824Z,0.90
2023-01-29T23:18:40.890Z,0.90
2023-01-29T23:21:09.921Z,0.90
2023-01-29T23:23:39.162Z,0.90
2023-01-29T23:26:29.775Z,0.90
2023-01-29T23:28:57.985Z,0.90
2023-01-29T23:31:26.510Z,0.90
2023-01-29T23:33:54.534Z,1.00
2023-01-29T23:36:23.043Z,1.00
2023-01-29T23:38:51.115Z,0.90
2023-01-29T23:41:21.195Z,1.00
2023-01-29T23:43:49.251Z,1.00
2023-01-29T23:46:17.266Z,1.00
2023-01-29T23:48:45.323Z,1.00
2023-01-29T23:51:13.280Z,1.00
2023-01-29T23:53:41.807Z,1.00
2023-01-29T23:56:12.548Z,1.00
2023-01-29T23:58:42.107Z,1.00
